Time;durP1;ratioP1;P1;durP2;ratioP2;P2;SDS_P1;SDS_P2;PMS_P1;PMS_P2;Temp;Humidity;BMP_temperature;BMP_pressure;BME280_temperature;BME280_humidity;BME280_pressure;Samples;Min_cycle;Max_cycle;Signal;HPM_P1;HPM_P2
2024/03/02 00:01:07;;;;;;;8.02;5.68;;;7.80;90.00;;;;;;5074273;28;20289;-68
2024/03/02 00:03:34;;;;;;;11.55;7.60;;;7.80;90.00;;;;;;5074721;28;20226;-68
2024/03/02 00:06:06;;;;;;;21.75;13.27;;;7.80;89.90;;;;;;5074485;28;20187;-68
2024/03/02 00:08:38;;;;;;;10.75;8.40;;;7.80;89.40;;;;;;5074839;28;20228;-68
2024/03/02 00:11:06;;;;;;;16.65;13.07;;;7.70;89.80;;;;;;5074169;28;20178;-68
2024/03/02 00:13:37;;;;;;;11.55;9.50;;;7.70;89.90;;;;;;5074391;28;20235;-68
2024/03/02 00:16:06;;;;;;;7.30;5.82;;;7.60;90.00;;;;;;5074858;28;20232;-68
2024/03/02 00:18:35;;;;;;;7.55;6.75;;;7.70;89.80;;;;;;5074116;28;20545;-69
2024/03/02 00:21:09;;;;;;;10.02;6.18;;;7.70;90.00;;;;;;5073630;28;20209;-68
2024/03/02 00:23:41;;;;;;;6.60;5.57;;;7.70;89.80;;;;;;5074556;28;20269;-68
2024/03/02 00:26:13;;;;;;;7.97;6.80;;;7.70;89.90;;;;;;5074300;28;20167;-68
2024/03/02 00:28:43;;;;;;;9.32;6.95;;;7.60;89.30;;;;;;5074435;28;20511;-68
2024/03/02 00:31:17;;;;;;;9.40;7.85;;;7.60;89.50;;;;;;5072811;28;20229;-68
2024/03/02 00:33:46;;;;;;;9.90;6.00;;;7.50;89.70;;;;;;5074344;28;20182;-68
2024/03/02 00:36:22;;;;;;;7.25;6.40;;;7.50;90.00;;;;;;5074258;28;20226;-68
2024/03/02 00:38:52;;;;;;;7.22;6.22;;;7.50;90.10;;;;;;5073985;28;20310;-68
2024/03/02 00:41:26;;;;;;;6.90;5.65;;;7.50;90.10;;;;;;5072566;28;20222;-69
2024/03/02 00:44:03;;;;;;;7.85;6.78;;;7.50;90.20;;;;;;5073715;28;20214;-68
2024/03/02 00:46:35;;;;;;;13.70;8.95;;;7.50;90.20;;;;;;5073928;28;20687;-68
2024/03/02 00:49:13;;;;;;;10.35;8.43;;;7.50;90.10;;;;;;5074169;28;20273;-68
2024/03/02 00:51:47;;;;;;;11.07;8.80;;;7.50;90.10;;;;;;5073938;28;20188;-68
2024/03/02 00:54:15;;;;;;;8.55;7.20;;;7.50;90.00;;;;;;5073937;28;20182;-68
2024/03/02 00:56:43;;;;;;;10.80;8.77;;;7.50;89.70;;;;;;5073857;28;20190;-68
2024/03/02 00:59:11;;;;;;;7.57;6.80;;;7.40;89.70;;;;;;5073952;28;20229;-68
2024/03/02 01:01:40;;;;;;;8.10;6.75;;;7.50;89.30;;;;;;5073285;28;20232;-68
2024/03/02 01:04:07;;;;;;;8.02;7.00;;;7.40;89.20;;;;;;5073475;28;20243;-68
2024/03/02 01:06:35;;;;;;;9.30;8.18;;;7.40;89.20;;;;;;5073682;28;20190;-68
2024/03/02 01:09:03;;;;;;;7.80;6.10;;;7.40;89.20;;;;;;5073003;28;20236;-68
2024/03/02 01:11:31;;;;;;;7.95;5.97;;;7.40;89.00;;;;;;5073032;28;20193;-68
2024/03/02 01:13:58;;;;;;;6.43;5.15;;;7.40;89.00;;;;;;5073619;28;20268;-68
2024/03/02 01:16:29;;;;;;;6.03;4.75;;;7.30;89.10;;;;;;5073598;28;20190;-68
2024/03/02 01:18:58;;;;;;;6.47;4.68;;;7.40;89.40;;;;;;5072976;28;20182;-68
2024/03/02 01:21:26;;;;;;;7.32;5.70;;;7.40;89.10;;;;;;5073467;28;20214;-68
2024/03/02 01:23:55;;;;;;;8.20;5.88;;;7.40;89.20;;;;;;5073168;28;20221;-68
2024/03/02 01:26:23;;;;;;;5.93;5.20;;;7.40;88.80;;;;;;5072989;28;20251;-68
2024/03/02 01:28:55;;;;;;;6.30;5.13;;;7.40;88.60;;;;;;5072846;28;20216;-68
2024/03/02 01:31:22;;;;;;;7.13;4.80;;;7.30;88.70;;;;;;5073603;28;20182;-68
2024/03/02 01:33:49;;;;;;;7.88;6.18;;;7.20;89.30;;;;;;5073391;28;20200;-68
2024/03/02 01:36:17;;;;;;;7.75;6.60;;;7.20;89.90;;;;;;5073477;28;20190;-68
2024/03/02 01:38:49;;;;;;;8.15;5.50;;;7.20;90.10;;;;;;5072510;28;20271;-68
2024/03/02 01:41:17;;;;;;;7.43;6.18;;;7.20;90.20;;;;;;5072243;28;20719;-68
2024/03/02 01:43:44;;;;;;;7.07;5.30;;;7.20;90.30;;;;;;5073426;28;20226;-68
2024/03/02 01:46:15;;;;;;;7.40;5.30;;;7.20;90.30;;;;;;5073301;28;20547;-69
2024/03/02 01:48:42;;;;;;;8.98;6.22;;;7.30;90.40;;;;;;5072916;28;20182;-69
2024/03/02 01:51:10;;;;;;;9.75;5.90;;;7.30;90.40;;;;;;5073382;28;20198;-68
2024/03/02 01:53:39;;;;;;;9.35;6.15;;;7.30;90.50;;;;;;5073295;28;20280;-68
2024/03/02 01:56:11;;;;;;;7.70;6.40;;;7.40;90.50;;;;;;5072810;28;20729;-68
2024/03/02 01:58:44;;;;;;;5.90;5.25;;;7.30;90.40;;;;;;5072820;28;20174;-68
2024/03/02 02:01:11;;;;;;;5.78;5.18;;;7.30;90.40;;;;;;5073070;28;20202;-68
2024/03/02 02:03:38;;;;;;;7.65;6.43;;;7.40;90.30;;;;;;5073182;28;20189;-68
2024/03/02 02:06:17;;;;;;;8.10;6.18;;;7.30;90.40;;;;;;5072919;28;20194;-67
2024/03/02 02:08:47;;;;;;;8.63;5.95;;;7.30;90.60;;;;;;5072412;28;20628;-68
2024/03/02 02:11:16;;;;;;;8.05;6.22;;;7.40;90.60;;;;;;5073030;28;20528;-68
2024/03/02 02:13:43;;;;;;;7.22;5.72;;;7.40;90.60;;;;;;5072991;28;20222;-68
2024/03/02 02:16:10;;;;;;;6.10;5.50;;;7.40;90.60;;;;;;5072782;28;20194;-68
2024/03/02 02:18:39;;;;;;;6.05;5.05;;;7.40;90.50;;;;;;5072597;28;20277;-68
2024/03/02 02:21:06;;;;;;;7.93;6.10;;;7.40;90.50;;;;;;5072990;28;20214;-68
2024/03/02 02:23:35;;;;;;;6.53;5.15;;;7.40;90.40;;;;;;5072952;28;20194;-68
2024/03/02 02:26:02;;;;;;;6.22;5.63;;;7.40;90.40;;;;;;5070912;28;20285;-68
2024/03/02 02:28:29;;;;;;;6.55;5.40;;;7.40;90.40;;;;;;5071994;28;20307;-68
2024/03/02 02:30:57;;;;;;;6.85;5.25;;;7.40;90.20;;;;;;5061508;28;20277;-68
2024/03/02 02:33:24;;;;;;;5.80;4.68;;;7.40;90.00;;;;;;5070603;28;20230;-68
2024/03/02 02:35:52;;;;;;;5.60;4.55;;;7.40;89.80;;;;;;5072369;28;20538;-68
2024/03/02 02:38:19;;;;;;;7.25;4.70;;;7.40;89.80;;;;;;5071865;28;20283;-68
2024/03/02 02:40:48;;;;;;;5.38;4.53;;;7.30;89.60;;;;;;5071873;28;20273;-68
2024/03/02 02:43:15;;;;;;;6.20;4.97;;;7.30;90.00;;;;;;5072281;28;20578;-68
2024/03/02 02:45:52;;;;;;;5.53;4.90;;;7.30;90.00;;;;;;5072228;28;20648;-68
2024/03/02 02:48:20;;;;;;;7.55;5.45;;;7.30;90.00;;;;;;5071491;28;20687;-68
2024/03/02 02:50:47;;;;;;;6.68;5.80;;;7.30;90.40;;;;;;5071750;28;20653;-68
2024/03/02 02:53:23;;;;;;;8.10;5.07;;;7.20;90.20;;;;;;5072804;28;20186;-68
2024/03/02 02:55:51;;;;;;;7.13;5.07;;;7.30;90.40;;;;;;5076319;28;20231;-68
2024/03/02 02:58:19;;;;;;;5.22;4.72;;;7.30;90.40;;;;;;5075786;28;20744;-68
2024/03/02 03:00:50;;;;;;;7.78;5.80;;;7.30;90.20;;;;;;5075426;28;20652;-68
2024/03/02 03:03:17;;;;;;;6.95;5.25;;;7.30;90.00;;;;;;5075843;28;20214;-68
2024/03/02 03:05:45;;;;;;;6.60;5.70;;;7.30;90.00;;;;;;5075478;28;20190;-68
2024/03/02 03:08:13;;;;;;;7.78;6.93;;;7.30;90.00;;;;;;5074985;28;20210;-68
2024/03/02 03:10:41;;;;;;;6.55;5.55;;;7.30;90.20;;;;;;5075128;28;20248;-69
2024/03/02 03:13:09;;;;;;;7.03;5.32;;;7.30;90.20;;;;;;5075944;28;20194;-70
2024/03/02 03:15:37;;;;;;;9.18;6.15;;;7.30;90.20;;;;;;5075475;28;20190;-68
2024/03/02 03:18:05;;;;;;;8.10;5.25;;;7.30;90.30;;;;;;5075646;28;20269;-68
2024/03/02 03:20:32;;;;;;;7.90;6.05;;;7.30;90.20;;;;;;5075103;28;20228;-68
2024/03/02 03:22:59;;;;;;;8.27;6.00;;;7.30;90.30;;;;;;5075631;28;20546;-69
2024/03/02 03:25:31;;;;;;;8.38;6.18;;;7.30;90.40;;;;;;5075485;28;20280;-68
2024/03/02 03:27:58;;;;;;;7.85;5.40;;;7.30;90.20;;;;;;5074944;28;20187;-68
2024/03/02 03:30:26;;;;;;;8.63;6.65;;;7.30;90.50;;;;;;5074883;28;20220;-69
2024/03/02 03:32:54;;;;;;;6.90;6.20;;;7.30;90.60;;;;;;5075306;28;20611;-68
2024/03/02 03:35:22;;;;;;;6.35;5.00;;;7.30;90.70;;;;;;5075131;28;20594;-69
2024/03/02 03:37:49;;;;;;;5.18;4.65;;;7.30;90.80;;;;;;5075454;28;20187;-69
2024/03/02 03:40:18;;;;;;;7.18;5.20;;;7.30;90.80;;;;;;5075063;28;20201;-68
2024/03/02 03:42:45;;;;;;;7.47;5.55;;;7.30;90.70;;;;;;5074968;28;20237;-68
2024/03/02 03:45:17;;;;;;;5.72;4.82;;;7.30;90.70;;;;;;5075118;28;20368;-68
2024/03/02 03:47:47;;;;;;;7.53;6.75;;;7.30;90.70;;;;;;5075324;28;20186;-69
2024/03/02 03:50:14;;;;;;;6.75;5.45;;;7.40;90.70;;;;;;5074725;28;20222;-69
2024/03/02 03:52:41;;;;;;;6.68;5.32;;;7.40;91.00;;;;;;5075128;28;20201;-68
2024/03/02 03:55:10;;;;;;;7.35;6.45;;;7.40;90.60;;;;;;5074964;28;20196;-68
2024/03/02 03:57:37;;;;;;;7.40;5.40;;;7.30;90.70;;;;;;5075007;28;20673;-69
2024/03/02 04:00:06;;;;;;;7.22;5.75;;;7.30;90.80;;;;;;5074557;28;20292;-68
2024/03/02 04:02:33;;;;;;;7.75;6.95;;;7.30;91.00;;;;;;5074841;28;20210;-68
2024/03/02 04:05:04;;;;;;;6.55;5.30;;;7.30;91.10;;;;;;5074271;28;20640;-68
2024/03/02 04:07:32;;;;;;;9.18;6.03;;;7.30;91.10;;;;;;5074836;28;20556;-68
2024/03/02 04:10:00;;;;;;;7.22;6.50;;;7.40;91.40;;;;;;5074260;28;20708;-68
2024/03/02 04:12:27;;;;;;;7.57;5.32;;;7.40;91.20;;;;;;5074784;28;20190;-68
2024/03/02 04:14:54;;;;;;;7.55;5.90;;;7.40;90.70;;;;;;5074855;28;20221;-68
2024/03/02 04:17:21;;;;;;;7.18;5.45;;;7.50;90.10;;;;;;5074239;28;20190;-68
2024/03/02 04:19:50;;;;;;;7.22;5.25;;;7.50;90.30;;;;;;5074531;28;20559;-69
2024/03/02 04:22:18;;;;;;;5.80;5.15;;;7.50;89.60;;;;;;5074638;28;20214;-68
2024/03/02 04:24:45;;;;;;;5.05;4.30;;;7.40;90.00;;;;;;5074537;28;20233;-69
2024/03/02 04:27:13;;;;;;;8.52;5.15;;;7.40;90.50;;;;;;5074543;28;20192;-68
2024/03/02 04:29:40;;;;;;;6.82;5.30;;;7.40;90.60;;;;;;5073995;28;20218;-68
2024/03/02 04:32:07;;;;;;;7.10;5.88;;;7.30;90.60;;;;;;5074431;28;20200;-68
2024/03/02 04:34:34;;;;;;;7.05;6.25;;;7.30;90.70;;;;;;5073488;28;20247;-68
2024/03/02 04:37:02;;;;;;;5.95;5.10;;;7.40;90.80;;;;;;5073919;28;20194;-68
2024/03/02 04:39:31;;;;;;;8.50;7.07;;;7.40;90.70;;;;;;5072610;28;20247;-68
2024/03/02 04:41:58;;;;;;;9.10;6.82;;;7.40;90.50;;;;;;5073637;28;20245;-68
2024/03/02 04:44:25;;;;;;;7.82;6.90;;;7.40;90.80;;;;;;5073690;28;20221;-68
2024/03/02 04:46:52;;;;;;;8.85;6.95;;;7.30;90.70;;;;;;5073895;28;20190;-68
2024/03/02 04:49:25;;;;;;;8.40;6.60;;;7.30;90.80;;;;;;5073643;28;20564;-68
2024/03/02 04:51:56;;;;;;;6.55;5.88;;;7.30;91.00;;;;;;5073798;28;20225;-68
2024/03/02 04:54:24;;;;;;;7.22;5.47;;;7.30;91.10;;;;;;5074151;28;20202;-69
2024/03/02 04:56:51;;;;;;;7.85;5.90;;;7.30;91.00;;;;;;5073853;28;20567;-68
2024/03/02 04:59:19;;;;;;;8.65;5.80;;;7.30;91.00;;;;;;5073596;28;20267;-68
2024/03/02 05:01:47;;;;;;;8.07;6.80;;;7.30;90.90;;;;;;5073937;28;20218;-68
2024/03/02 05:04:18;;;;;;;7.18;6.25;;;7.30;90.90;;;;;;5073980;28;20217;-68
2024/03/02 05:06:51;;;;;;;6.63;5.88;;;7.30;91.00;;;;;;5074151;28;20183;-69
2024/03/02 05:09:19;;;;;;;13.85;6.18;;;7.30;90.90;;;;;;5073554;28;20201;-68
2024/03/02 05:14:42;;;;;;;8.55;6.53;;;7.30;90.70;;;;;;5069900;28;20269;-68
2024/03/02 05:17:09;;;;;;;15.25;6.32;;;7.40;90.70;;;;;;5073159;28;20222;-68
2024/03/02 05:19:36;;;;;;;6.75;5.55;;;7.30;90.50;;;;;;5073687;28;20196;-68
2024/03/02 05:22:04;;;;;;;7.65;6.32;;;7.30;90.60;;;;;;5073363;28;20214;-68
2024/03/02 05:24:36;;;;;;;7.45;5.88;;;7.20;90.60;;;;;;5073760;28;20245;-68
2024/03/02 05:27:07;;;;;;;6.07;5.15;;;7.30;90.70;;;;;;5073785;28;20178;-68
2024/03/02 05:29:37;;;;;;;7.15;5.78;;;7.20;90.60;;;;;;5073649;28;20178;-68
2024/03/02 05:32:04;;;;;;;8.02;6.03;;;7.20;90.80;;;;;;5073661;28;20251;-68
2024/03/02 05:34:33;;;;;;;7.15;5.28;;;7.20;90.60;;;;;;5073153;28;20248;-68
2024/03/02 05:37:02;;;;;;;6.32;5.57;;;7.10;90.50;;;;;;5072962;28;20278;-69
2024/03/02 05:39:34;;;;;;;8.18;5.80;;;7.10;90.60;;;;;;5053173;28;20694;-68
2024/03/02 05:42:01;;;;;;;8.95;5.63;;;7.10;90.40;;;;;;5053161;28;20203;-68
2024/03/02 05:44:29;;;;;;;8.10;5.47;;;7.10;90.20;;;;;;5052542;28;20179;-69
2024/03/02 05:46:56;;;;;;;6.50;5.47;;;7.10;90.20;;;;;;5067697;28;20218;-68
2024/03/02 05:49:25;;;;;;;6.30;5.70;;;7.10;90.20;;;;;;5073202;28;20244;-68
2024/03/02 05:51:57;;;;;;;7.00;6.05;;;7.00;90.20;;;;;;5073330;28;20233;-68
2024/03/02 05:54:26;;;;;;;7.78;6.97;;;7.00;90.10;;;;;;5072842;28;20178;-68
2024/03/02 05:56:53;;;;;;;8.27;6.38;;;7.00;90.10;;;;;;5073421;28;20194;-68
2024/03/02 05:59:21;;;;;;;8.13;6.95;;;6.90;90.10;;;;;;5072745;28;20187;-68
2024/03/02 06:01:50;;;;;;;8.25;6.90;;;6.90;90.20;;;;;;5072897;28;20213;-68
2024/03/02 06:04:17;;;;;;;7.75;6.90;;;6.90;90.20;;;;;;5073043;28;20222;-68
2024/03/02 06:06:49;;;;;;;7.30;6.60;;;6.90;90.30;;;;;;5072687;28;20198;-68
2024/03/02 06:09:17;;;;;;;11.98;9.63;;;6.90;90.50;;;;;;5072303;28;20261;-68
2024/03/02 06:11:48;;;;;;;13.52;9.10;;;6.90;90.50;;;;;;5072954;28;20586;-68
2024/03/02 06:14:17;;;;;;;16.13;6.75;;;6.90;90.70;;;;;;5073053;28;20186;-68
2024/03/02 06:16:48;;;;;;;8.73;7.30;;;6.80;90.20;;;;;;5072522;28;20194;-68
2024/03/02 06:19:23;;;;;;;8.77;7.10;;;6.80;90.10;;;;;;5072327;28;20660;-68
2024/03/02 06:21:50;;;;;;;7.60;5.32;;;6.80;89.60;;;;;;5071461;28;20204;-68
2024/03/02 06:24:17;;;;;;;7.30;6.15;;;6.70;89.70;;;;;;5072951;28;20226;-68
2024/03/02 06:26:44;;;;;;;7.80;5.53;;;6.70;89.90;;;;;;5072916;28;20602;-68
2024/03/02 06:29:12;;;;;;;6.88;5.68;;;6.70;88.90;;;;;;5074843;28;20256;-68
2024/03/02 06:31:39;;;;;;;6.10;5.22;;;6.60;89.80;;;;;;5076530;28;20198;-68
2024/03/02 06:34:06;;;;;;;8.65;6.45;;;6.60;89.80;;;;;;5076715;28;20198;-68
2024/03/02 06:36:35;;;;;;;8.80;6.05;;;6.50;89.90;;;;;;5076511;28;20248;-68
2024/03/02 06:39:06;;;;;;;10.85;6.85;;;6.50;90.00;;;;;;5076079;28;20197;-68
2024/03/02 06:41:34;;;;;;;9.00;7.43;;;6.50;90.30;;;;;;5076433;28;20182;-68
2024/03/02 06:44:01;;;;;;;7.50;6.40;;;6.50;90.40;;;;;;5075876;28;20707;-68
2024/03/02 06:46:30;;;;;;;7.20;5.90;;;6.50;90.40;;;;;;5075432;28;20183;-68
2024/03/02 06:48:58;;;;;;;9.20;8.27;;;6.50;90.40;;;;;;5074999;28;20194;-68
2024/03/02 06:51:25;;;;;;;8.30;6.43;;;6.50;90.40;;;;;;5076241;28;20190;-68
2024/03/02 06:53:53;;;;;;;7.65;6.18;;;6.50;90.70;;;;;;5075593;28;20186;-68
2024/03/02 06:56:23;;;;;;;10.55;8.80;;;6.50;90.70;;;;;;5075886;28;20194;-68
2024/03/02 06:58:53;;;;;;;10.80;9.00;;;6.50;90.90;;;;;;5075812;28;20179;-68
2024/03/02 07:01:20;;;;;;;10.50;8.18;;;6.60;91.00;;;;;;5076255;28;20204;-68
2024/03/02 07:03:48;;;;;;;12.13;10.32;;;6.60;91.20;;;;;;5075538;28;20245;-68
2024/03/02 07:06:19;;;;;;;23.83;20.33;;;6.80;91.40;;;;;;5075904;28;20186;-68
2024/03/02 07:08:47;;;;;;;20.70;14.55;;;7.00;91.40;;;;;;5073161;28;20224;-69
2024/03/02 07:11:17;;;;;;;18.10;13.32;;;7.30;91.40;;;;;;5074028;28;20209;-69
2024/03/02 07:13:46;;;;;;;16.42;11.20;;;7.60;91.30;;;;;;5075299;28;20221;-68
2024/03/02 07:16:27;;;;;;;10.93;9.40;;;8.00;91.30;;;;;;5075118;28;20527;-68
2024/03/02 07:18:56;;;;;;;9.68;8.05;;;8.30;90.90;;;;;;5074690;28;20184;-68
2024/03/02 07:21:29;;;;;;;9.73;7.43;;;8.50;88.80;;;;;;5074666;28;20658;-69
2024/03/02 07:23:56;;;;;;;7.85;6.97;;;8.60;86.10;;;;;;5074711;28;20255;-68
2024/03/02 07:26:24;;;;;;;11.25;8.32;;;8.80;84.90;;;;;;5075042;28;20600;-69
2024/03/02 07:28:52;;;;;;;9.40;8.13;;;8.90;84.40;;;;;;5074628;28;20664;-69
2024/03/02 07:31:19;;;;;;;8.77;7.05;;;9.10;85.10;;;;;;5074850;28;20194;-68
2024/03/02 07:33:47;;;;;;;9.10;7.22;;;9.40;85.50;;;;;;5074917;28;20194;-69
2024/03/02 07:36:19;;;;;;;8.85;7.35;;;10.00;83.50;;;;;;5074554;28;20318;-69
2024/03/02 07:38:50;;;;;;;8.15;6.97;;;10.50;82.20;;;;;;5073991;28;20178;-69
2024/03/02 07:41:27;;;;;;;10.63;6.03;;;11.10;81.40;;;;;;5074610;28;20213;-69
2024/03/02 07:43:56;;;;;;;14.03;9.63;;;11.70;78.20;;;;;;5071600;28;20309;-69
2024/03/02 07:46:23;;;;;;;8.77;7.53;;;12.40;74.20;;;;;;5074406;28;20478;-67
2024/03/02 07:48:55;;;;;;;8.53;7.13;;;13.00;69.90;;;;;;5074286;28;20834;-67
2024/03/02 07:51:22;;;;;;;8.67;7.50;;;13.60;69.40;;;;;;5073425;28;20501;-68
2024/03/02 07:53:49;;;;;;;7.50;6.40;;;14.20;65.30;;;;;;5073342;28;20460;-70
2024/03/02 07:56:21;;;;;;;6.80;6.10;;;14.80;63.00;;;;;;5074430;28;20432;-67
2024/03/02 07:58:49;;;;;;;8.90;7.47;;;15.30;62.30;;;;;;5073835;28;20421;-67
2024/03/02 08:01:20;;;;;;;6.60;5.90;;;15.90;59.90;;;;;;5074420;28;20432;-67
2024/03/02 08:03:49;;;;;;;7.23;5.80;;;16.50;59.20;;;;;;5073683;28;20559;-69
2024/03/02 08:06:17;;;;;;;7.27;6.30;;;16.90;55.80;;;;;;5073906;28;20940;-68
2024/03/02 08:08:44;;;;;;;6.57;5.80;;;17.30;53.90;;;;;;5074149;28;20866;-68
2024/03/02 08:11:11;;;;;;;7.27;6.00;;;17.40;53.00;;;;;;5074206;28;20830;-68
2024/03/02 08:13:39;;;;;;;9.43;6.00;;;17.50;53.00;;;;;;5073397;28;20518;-68
2024/03/02 08:16:09;;;;;;;6.07;5.47;;;17.70;53.10;;;;;;5072734;28;20435;-69
2024/03/02 08:18:37;;;;;;;6.43;5.30;;;18.10;52.70;;;;;;5073679;28;20470;-68
2024/03/02 08:21:07;;;;;;;6.47;5.87;;;18.40;51.70;;;;;;5073983;28;20434;-68
2024/03/02 08:23:36;;;;;;;6.40;5.67;;;18.70;49.90;;;;;;5073846;28;20973;-68
2024/03/02 08:26:04;;;;;;;5.80;4.60;;;18.80;49.40;;;;;;5073489;28;20965;-68
2024/03/02 08:28:31;;;;;;;7.77;6.17;;;18.90;49.20;;;;;;5073506;28;20443;-68
2024/03/02 08:30:58;;;;;;;6.57;5.27;;;19.00;49.40;;;;;;5073765;28;20436;-68
2024/03/02 08:33:25;;;;;;;6.20;4.90;;;19.00;49.00;;;;;;5073357;28;21006;-69
2024/03/02 08:35:53;;;;;;;5.50;4.37;;;19.10;47.60;;;;;;5073748;28;20428;-68
2024/03/02 08:38:20;;;;;;;5.53;4.30;;;19.10;47.50;;;;;;5071055;28;20424;-68
2024/03/02 08:40:47;;;;;;;5.50;4.40;;;19.00;46.00;;;;;;5073143;28;20439;-68
2024/03/02 08:43:15;;;;;;;6.00;4.77;;;18.70;46.30;;;;;;5072875;28;20838;-69
2024/03/02 08:45:42;;;;;;;5.33;4.20;;;18.40;46.50;;;;;;5073026;28;20432;-68
2024/03/02 08:48:09;;;;;;;5.60;5.00;;;18.00;46.80;;;;;;5074497;28;20439;-68
2024/03/02 08:50:37;;;;;;;5.47;4.97;;;17.60;47.50;;;;;;5071969;28;20841;-69
2024/03/02 08:53:05;;;;;;;6.13;4.87;;;17.10;48.10;;;;;;5072614;28;20441;-68
2024/03/02 08:55:33;;;;;;;5.70;4.63;;;16.70;48.70;;;;;;5072751;28;20505;-68
2024/03/02 08:58:00;;;;;;;6.30;5.07;;;16.30;49.40;;;;;;5073041;28;20447;-70
2024/03/02 09:00:27;;;;;;;5.43;4.37;;;15.90;50.40;;;;;;5073685;28;20512;-68
2024/03/02 09:02:55;;;;;;;6.40;4.50;;;15.70;51.30;;;;;;5072791;28;20515;-68
2024/03/02 09:05:22;;;;;;;5.50;3.70;;;15.40;50.80;;;;;;5083601;28;20425;-68
2024/03/02 09:07:49;;;;;;;6.73;4.10;;;15.10;51.30;;;;;;5093189;28;20468;-68
2024/03/02 09:10:17;;;;;;;5.20;4.03;;;14.90;52.00;;;;;;5093315;28;20455;-68
2024/03/02 09:12:44;;;;;;;5.03;3.80;;;14.70;52.70;;;;;;5083151;28;20492;-68
2024/03/02 09:15:13;;;;;;;8.43;4.60;;;14.50;53.50;;;;;;5069910;28;20468;-69
2024/03/02 09:17:40;;;;;;;7.17;5.00;;;14.30;54.00;;;;;;5071975;28;20494;-68
2024/03/02 09:20:08;;;;;;;5.20;4.30;;;14.20;54.70;;;;;;5071604;28;20424;-68
2024/03/02 09:22:35;;;;;;;5.70;4.60;;;14.10;55.50;;;;;;5072724;28;20824;-68
2024/03/02 09:25:02;;;;;;;6.10;4.87;;;14.10;55.70;;;;;;5071715;28;20833;-68
2024/03/02 09:27:30;;;;;;;6.13;4.47;;;14.10;56.50;;;;;;5072380;28;20440;-68
2024/03/02 09:29:57;;;;;;;8.57;6.17;;;14.00;56.70;;;;;;5079220;28;20463;-68
2024/03/02 09:32:25;;;;;;;6.00;5.23;;;14.00;56.90;;;;;;5079917;28;20519;-68
2024/03/02 09:34:55;;;;;;;4.93;4.23;;;13.90;56.90;;;;;;5079340;28;20522;-68
2024/03/02 09:37:22;;;;;;;7.10;5.17;;;13.90;57.10;;;;;;5066053;28;20488;-68
2024/03/02 09:39:49;;;;;;;5.10;4.43;;;13.90;57.80;;;;;;5074653;28;21003;-68
2024/03/02 09:42:17;;;;;;;6.00;5.03;;;14.00;57.60;;;;;;5078207;28;20456;-67
2024/03/02 09:44:45;;;;;;;8.13;5.53;;;14.00;57.80;;;;;;5087970;28;20566;-68
2024/03/02 09:47:12;;;;;;;6.50;4.73;;;14.00;57.60;;;;;;5076882;28;20458;-68
2024/03/02 09:49:39;;;;;;;7.50;5.00;;;14.10;58.10;;;;;;5074071;28;20459;-68
2024/03/02 09:52:07;;;;;;;4.87;4.20;;;14.20;58.40;;;;;;5071916;28;20458;-68
2024/03/02 09:54:34;;;;;;;6.10;5.13;;;14.40;58.50;;;;;;5072274;28;20491;-68
2024/03/02 09:57:03;;;;;;;7.50;5.40;;;14.60;57.30;;;;;;5072670;28;20922;-68
2024/03/02 09:59:30;;;;;;;7.40;4.67;;;14.80;57.50;;;;;;5086756;28;20932;-68
2024/03/02 10:01:59;;;;;;;6.43;4.73;;;15.00;56.90;;;;;;5082827;28;20493;-68
2024/03/02 10:04:27;;;;;;;8.23;4.63;;;15.10;56.40;;;;;;5097305;28;20879;-68
2024/03/02 10:07:14;;;;;;;4.83;4.30;;;15.30;56.90;;;;;;5097514;28;20455;-68
2024/03/02 10:09:44;;;;;;;5.70;3.87;;;15.40;56.20;;;;;;5097013;28;20976;-68
2024/03/02 10:12:12;;;;;;;4.80;3.93;;;15.60;56.20;;;;;;5097103;28;20482;-68
2024/03/02 10:14:40;;;;;;;6.10;4.77;;;15.80;56.10;;;;;;5097201;28;20467;-68
2024/03/02 10:17:09;;;;;;;5.20;4.03;;;16.00;56.20;;;;;;5097221;28;20463;-68
2024/03/02 10:19:37;;;;;;;4.83;3.90;;;16.30;55.90;;;;;;5096853;28;20487;-68
2024/03/02 10:22:06;;;;;;;3.90;3.00;;;16.50;55.00;;;;;;5096821;28;20429;-68
2024/03/02 10:24:40;;;;;;;4.93;4.20;;;16.40;54.80;;;;;;5096858;28;20477;-68
2024/03/02 10:27:11;;;;;;;4.80;2.40;;;16.50;54.80;;;;;;5096675;28;20423;-69
2024/03/02 10:29:39;;;;;;;4.30;2.80;;;16.40;54.40;;;;;;5096758;28;20438;-69
2024/03/02 10:32:09;;;;;;;3.47;1.90;;;16.40;53.30;;;;;;5096949;28;20434;-68
2024/03/02 10:34:37;;;;;;;3.70;2.60;;;16.30;52.40;;;;;;5096892;28;20861;-68
2024/03/02 10:37:04;;;;;;;3.90;2.30;;;16.30;52.10;;;;;;5096868;28;20491;-67
2024/03/02 10:39:32;;;;;;;5.47;3.67;;;16.30;51.70;;;;;;5096524;28;20468;-68
2024/03/02 10:42:02;;;;;;;5.03;2.73;;;16.30;52.70;;;;;;5096504;28;20437;-68
2024/03/02 10:44:31;;;;;;;5.43;3.60;;;16.30;53.30;;;;;;5096693;28;20510;-68
2024/03/02 10:47:00;;;;;;;4.27;3.03;;;16.40;53.40;;;;;;5096383;28;20429;-68
2024/03/02 10:49:31;;;;;;;5.30;3.60;;;16.40;53.60;;;;;;5096397;28;20465;-68
2024/03/02 10:51:58;;;;;;;4.53;3.40;;;16.40;52.70;;;;;;5096304;28;20461;-68
2024/03/02 10:54:28;;;;;;;4.40;3.20;;;16.50;52.90;;;;;;5096637;28;20766;-68
2024/03/02 10:56:59;;;;;;;4.10;2.67;;;16.60;52.70;;;;;;5096604;28;20454;-67
2024/03/02 10:59:30;;;;;;;4.10;2.87;;;16.70;53.40;;;;;;5096563;28;20456;-68
2024/03/02 11:01:59;;;;;;;4.30;2.83;;;16.80;53.00;;;;;;5096564;28;20461;-68
2024/03/02 11:04:27;;;;;;;4.63;3.20;;;16.90;52.00;;;;;;5095958;28;20997;-68
2024/03/02 11:07:00;;;;;;;3.97;3.10;;;17.00;52.30;;;;;;5096038;28;20473;-68
2024/03/02 11:09:29;;;;;;;3.53;2.13;;;17.40;53.00;;;;;;5095981;28;20419;-68
2024/03/02 11:12:04;;;;;;;3.03;2.00;;;18.10;52.10;;;;;;5096268;28;20430;-68
2024/03/02 11:14:33;;;;;;;4.33;2.50;;;18.80;51.80;;;;;;5095173;28;20426;-69
2024/03/02 11:17:01;;;;;;;3.50;2.23;;;19.80;49.90;;;;;;5096162;28;20435;-69
2024/03/02 11:19:29;;;;;;;3.90;2.50;;;20.60;48.90;;;;;;5096075;28;20830;-69
2024/03/02 11:21:58;;;;;;;6.13;3.53;;;21.40;46.90;;;;;;5095977;28;20850;-69
2024/03/02 11:24:34;;;;;;;3.90;2.70;;;22.10;45.50;;;;;;5095989;28;20467;-69
2024/03/02 11:27:02;;;;;;;4.00;2.77;;;23.10;45.10;;;;;;5095981;28;20458;-69
2024/03/02 11:29:48;;;;;;;4.73;3.50;;;23.90;43.60;;;;;;5095584;28;20431;-69
2024/03/02 11:32:21;;;;;;;3.90;2.73;;;24.60;40.30;;;;;;5095866;28;20426;-69
2024/03/02 11:34:50;;;;;;;3.50;2.40;;;25.20;38.40;;;;;;5095980;28;20879;-69
2024/03/02 11:37:20;;;;;;;4.43;3.20;;;25.60;36.90;;;;;;5095458;28;20462;-69
2024/03/02 11:39:50;;;;;;;4.10;2.87;;;25.90;34.00;;;;;;5095718;28;20459;-69
2024/03/02 11:42:17;;;;;;;3.70;2.30;;;26.10;34.70;;;;;;5095417;28;20869;-69
2024/03/02 11:44:46;;;;;;;3.87;2.30;;;26.40;34.00;;;;;;5095563;28;20498;-69
2024/03/02 11:47:16;;;;;;;3.57;1.97;;;26.90;32.70;;;;;;5095107;28;20484;-69
2024/03/02 11:49:45;;;;;;;4.17;2.33;;;27.30;32.20;;;;;;5095265;28;20496;-69
2024/03/02 11:52:13;;;;;;;4.20;2.23;;;27.60;30.30;;;;;;5095174;28;20936;-69
2024/03/02 11:54:46;;;;;;;7.47;2.47;;;27.80;30.60;;;;;;5095424;28;20435;-69
2024/03/02 11:57:14;;;;;;;3.70;2.03;;;28.00;31.00;;;;;;5095451;28;20428;-69
2024/03/02 11:59:41;;;;;;;4.03;2.43;;;28.40;30.40;;;;;;5094980;28;20439;-70
2024/03/02 12:02:18;;;;;;;3.70;2.40;;;28.50;29.60;;;;;;5094911;28;20922;-70
2024/03/02 12:04:46;;;;;;;4.47;2.10;;;28.50;28.40;;;;;;5095067;28;20480;-70
2024/03/02 12:07:13;;;;;;;3.37;1.80;;;28.60;28.40;;;;;;5094781;28;20447;-70
2024/03/02 12:09:42;;;;;;;6.00;2.20;;;28.70;28.20;;;;;;5095147;28;20455;-70
2024/03/02 12:12:10;;;;;;;4.23;2.03;;;28.90;28.40;;;;;;5094654;28;20458;-70
2024/03/02 12:14:39;;;;;;;5.47;2.90;;;29.00;27.60;;;;;;5094952;28;20435;-70
2024/03/02 12:17:06;;;;;;;4.03;2.30;;;29.10;27.40;;;;;;5094603;28;20431;-68
2024/03/02 12:19:34;;;;;;;4.37;2.70;;;29.10;26.90;;;;;;5094612;28;20474;-68
2024/03/02 12:22:02;;;;;;;3.90;2.20;;;28.90;26.60;;;;;;5094944;28;20463;-68
2024/03/02 12:24:30;;;;;;;4.80;2.73;;;28.90;27.50;;;;;;5094894;28;20529;-68
2024/03/02 12:26:59;;;;;;;5.37;2.10;;;28.90;27.60;;;;;;5094745;28;20526;-68
2024/03/02 12:29:26;;;;;;;3.67;2.43;;;28.90;27.10;;;;;;5094678;28;20506;-68
2024/03/02 12:31:54;;;;;;;3.97;2.53;;;28.80;27.30;;;;;;5094888;28;20890;-69
2024/03/02 12:34:22;;;;;;;4.63;2.57;;;28.80;26.90;;;;;;5094151;28;20506;-68
2024/03/02 12:36:53;;;;;;;4.20;2.90;;;28.70;27.20;;;;;;5094124;28;20511;-69
2024/03/02 12:39:21;;;;;;;5.00;2.47;;;28.70;26.90;;;;;;5094258;28;20423;-68
2024/03/02 12:41:50;;;;;;;4.50;2.53;;;28.50;27.20;;;;;;5094099;28;20436;-69
2024/03/02 12:44:19;;;;;;;4.23;2.90;;;28.30;27.20;;;;;;5094482;28;20484;-68
2024/03/02 12:46:46;;;;;;;4.57;3.10;;;28.20;27.50;;;;;;5094057;28;20522;-68
2024/03/02 12:49:15;;;;;;;5.47;3.40;;;28.00;27.50;;;;;;5094127;28;20458;-70
2024/03/02 12:51:43;;;;;;;4.77;3.10;;;28.00;27.60;;;;;;5094097;28;20517;-68
2024/03/02 12:54:11;;;;;;;5.97;3.27;;;28.00;27.90;;;;;;5094351;28;20498;-68
2024/03/02 12:56:38;;;;;;;4.43;3.07;;;27.90;27.60;;;;;;5093835;28;20453;-68
2024/03/02 12:59:06;;;;;;;5.27;3.00;;;27.90;27.70;;;;;;5093917;28;20498;-68
2024/03/02 13:01:35;;;;;;;6.27;3.20;;;27.70;27.30;;;;;;5094182;28;20446;-69